sensor_id;sensor_type;location;lat;lon;timestamp;P1;durP1;ratioP1;P2;durP2;ratioP2
64932;SDS011;51446;53.850;10.662;2023-02-27T00:02:12;9.23;;;4.70;;
64932;SDS011;51446;53.850;10.662;2023-02-27T00:04:37;7.50;;;4.33;;
64932;SDS011;51446;53.850;10.662;2023-02-27T00:07:02;10.67;;;4.50;;
64932;SDS011;51446;53.850;10.662;2023-02-27T00:09:28;4.93;;;4.03;;
64932;SDS011;51446;53.850;10.662;2023-02-27T00:11:53;6.32;;;4.65;;
64932;SDS011;51446;53.850;10.662;2023-02-27T00:14:18;5.50;;;4.60;;
64932;SDS011;51446;53.850;10.662;2023-02-27T00:16:44;9.70;;;5.73;;
64932;SDS011;51446;53.850;10.662;2023-02-27T00:19:09;14.40;;;8.37;;
64932;SDS011;51446;53.850;10.662;2023-02-27T00:21:35;10.90;;;8.23;;
64932;SDS011;51446;53.850;10.662;2023-02-27T00:24:00;9.50;;;5.40;;
64932;SDS011;51446;53.850;10.662;2023-02-27T00:26:26;6.82;;;4.68;;
64932;SDS011;51446;53.850;10.662;2023-02-27T00:28:51;5.73;;;4.23;;
64932;SDS011;51446;53.850;10.662;2023-02-27T00:31:16;10.60;;;5.00;;
64932;SDS011;51446;53.850;10.662;2023-02-27T00:33:41;5.93;;;4.57;;
64932;SDS011;51446;53.850;10.662;2023-02-27T00:36:07;7.67;;;5.20;;
64932;SDS011;51446;53.850;10.662;2023-02-27T00:38:32;7.43;;;5.67;;
64932;SDS011;51446;53.850;10.662;2023-02-27T00:40:57;7.93;;;5.17;;
64932;SDS011;51446;53.850;10.662;2023-02-27T00:43:23;8.20;;;5.40;;
64932;SDS011;51446;53.850;10.662;2023-02-27T00:45:48;7.35;;;5.30;;
64932;SDS011;51446;53.850;10.662;2023-02-27T00:48:14;6.83;;;4.67;;
64932;SDS011;51446;53.850;10.662;2023-02-27T00:50:39;6.83;;;3.97;;
64932;SDS011;51446;53.850;10.662;2023-02-27T00:53:05;8.03;;;4.87;;
64932;SDS011;51446;53.850;10.662;2023-02-27T00:55:30;7.17;;;4.90;;
64932;SDS011;51446;53.850;10.662;2023-02-27T00:57:56;7.43;;;5.10;;
64932;SDS011;51446;53.850;10.662;2023-02-27T01:00:21;9.50;;;4.90;;
64932;SDS011;51446;53.850;10.662;2023-02-27T01:02:47;10.50;;;4.83;;
64932;SDS011;51446;53.850;10.662;2023-02-27T01:05:12;7.73;;;4.77;;
64932;SDS011;51446;53.850;10.662;2023-02-27T01:07:38;7.75;;;4.25;;
64932;SDS011;51446;53.850;10.662;2023-02-27T01:10:04;8.10;;;4.87;;
64932;SDS011;51446;53.850;10.662;2023-02-27T01:12:30;7.10;;;4.53;;
64932;SDS011;51446;53.850;10.662;2023-02-27T01:14:56;5.10;;;4.30;;
64932;SDS011;51446;53.850;10.662;2023-02-27T01:17:21;10.60;;;4.47;;
64932;SDS011;51446;53.850;10.662;2023-02-27T01:19:46;8.30;;;4.70;;
64932;SDS011;51446;53.850;10.662;2023-02-27T01:22:11;6.47;;;4.80;;
64932;SDS011;51446;53.850;10.662;2023-02-27T01:24:37;6.93;;;4.77;;
64932;SDS011;51446;53.850;10.662;2023-02-27T01:27:02;7.47;;;4.80;;
64932;SDS011;51446;53.850;10.662;2023-02-27T01:29:27;6.27;;;4.97;;
64932;SDS011;51446;53.850;10.662;2023-02-27T01:31:53;5.97;;;4.80;;
64932;SDS011;51446;53.850;10.662;2023-02-27T01:34:19;6.10;;;5.07;;
64932;SDS011;51446;53.850;10.662;2023-02-27T01:36:44;7.13;;;4.40;;
64932;SDS011;51446;53.850;10.662;2023-02-27T01:39:09;6.77;;;4.97;;
64932;SDS011;51446;53.850;10.662;2023-02-27T01:41:35;5.30;;;4.30;;
64932;SDS011;51446;53.850;10.662;2023-02-27T01:44:07;7.07;;;4.60;;
64932;SDS011;51446;53.850;10.662;2023-02-27T01:46:35;7.88;;;4.93;;
64932;SDS011;51446;53.850;10.662;2023-02-27T01:49:10;8.20;;;4.68;;
64932;SDS011;51446;53.850;10.662;2023-02-27T01:51:50;5.57;;;4.33;;
64932;SDS011;51446;53.850;10.662;2023-02-27T01:54:19;5.68;;;3.78;;
64932;SDS011;51446;53.850;10.662;2023-02-27T01:56:48;6.80;;;4.68;;
64932;SDS011;51446;53.850;10.662;2023-02-27T01:59:14;6.78;;;4.10;;
64932;SDS011;51446;53.850;10.662;2023-02-27T02:01:41;7.15;;;4.60;;
64932;SDS011;51446;53.850;10.662;2023-02-27T02:04:29;5.37;;;4.57;;
64932;SDS011;51446;53.850;10.662;2023-02-27T02:07:02;10.88;;;4.88;;
64932;SDS011;51446;53.850;10.662;2023-02-27T02:09:33;8.77;;;4.78;;
64932;SDS011;51446;53.850;10.662;2023-02-27T02:12:01;5.05;;;4.28;;
64932;SDS011;51446;53.850;10.662;2023-02-27T02:14:27;6.57;;;4.53;;
64932;SDS011;51446;53.850;10.662;2023-02-27T02:19:52;7.07;;;4.68;;
64932;SDS011;51446;53.850;10.662;2023-02-27T02:25:27;10.48;;;5.25;;
64932;SDS011;51446;53.850;10.662;2023-02-27T02:28:21;7.05;;;4.75;;
64932;SDS011;51446;53.850;10.662;2023-02-27T02:42:52;7.65;;;4.68;;
64932;SDS011;51446;53.850;10.662;2023-02-27T02:45:45;5.57;;;4.40;;
64932;SDS011;51446;53.850;10.662;2023-02-27T02:51:21;5.22;;;4.68;;
64932;SDS011;51446;53.850;10.662;2023-02-27T02:53:55;6.68;;;4.65;;
64932;SDS011;51446;53.850;10.662;2023-02-27T02:59:29;5.90;;;4.80;;
64932;SDS011;51446;53.850;10.662;2023-02-27T03:02:01;8.45;;;5.00;;
64932;SDS011;51446;53.850;10.662;2023-02-27T03:04:33;4.88;;;4.30;;
64932;SDS011;51446;53.850;10.662;2023-02-27T03:07:05;7.07;;;4.55;;
64932;SDS011;51446;53.850;10.662;2023-02-27T03:09:35;7.00;;;5.00;;
64932;SDS011;51446;53.850;10.662;2023-02-27T03:12:06;9.33;;;4.73;;
64932;SDS011;51446;53.850;10.662;2023-02-27T03:14:39;10.30;;;5.00;;
64932;SDS011;51446;53.850;10.662;2023-02-27T03:17:09;13.98;;;6.30;;
64932;SDS011;51446;53.850;10.662;2023-02-27T03:19:44;8.65;;;5.55;;
64932;SDS011;51446;53.850;10.662;2023-02-27T03:22:18;7.18;;;4.65;;
64932;SDS011;51446;53.850;10.662;2023-02-27T03:24:50;9.10;;;4.73;;
64932;SDS011;51446;53.850;10.662;2023-02-27T03:27:19;6.32;;;4.97;;
64932;SDS011;51446;53.850;10.662;2023-02-27T03:32:37;5.75;;;4.57;;
64932;SDS011;51446;53.850;10.662;2023-02-27T03:35:10;9.88;;;4.97;;
64932;SDS011;51446;53.850;10.662;2023-02-27T03:40:35;5.75;;;4.60;;
64932;SDS011;51446;53.850;10.662;2023-02-27T03:45:53;6.35;;;4.50;;
64932;SDS011;51446;53.850;10.662;2023-02-27T03:48:37;10.40;;;5.18;;
64932;SDS011;51446;53.850;10.662;2023-02-27T03:51:08;7.70;;;5.03;;
64932;SDS011;51446;53.850;10.662;2023-02-27T03:53:37;6.95;;;4.90;;
64932;SDS011;51446;53.850;10.662;2023-02-27T03:56:10;6.10;;;5.20;;
64932;SDS011;51446;53.850;10.662;2023-02-27T03:58:38;6.55;;;4.75;;
64932;SDS011;51446;53.850;10.662;2023-02-27T04:01:03;7.97;;;4.80;;
64932;SDS011;51446;53.850;10.662;2023-02-27T04:03:30;5.45;;;4.28;;
64932;SDS011;51446;53.850;10.662;2023-02-27T04:06:00;5.32;;;4.75;;
64932;SDS011;51446;53.850;10.662;2023-02-27T04:09:20;7.33;;;5.33;;
64932;SDS011;51446;53.850;10.662;2023-02-27T04:22:31;6.77;;;4.93;;
64932;SDS011;51446;53.850;10.662;2023-02-27T04:27:46;8.07;;;5.28;;
64932;SDS011;51446;53.850;10.662;2023-02-27T04:33:31;10.73;;;7.15;;
64932;SDS011;51446;53.850;10.662;2023-02-27T04:36:30;28.53;;;12.17;;
64932;SDS011;51446;53.850;10.662;2023-02-27T04:39:02;18.13;;;8.70;;
64932;SDS011;51446;53.850;10.662;2023-02-27T04:41:43;13.52;;;7.40;;
64932;SDS011;51446;53.850;10.662;2023-02-27T04:44:14;14.65;;;6.63;;
64932;SDS011;51446;53.850;10.662;2023-02-27T04:46:43;14.18;;;6.70;;
64932;SDS011;51446;53.850;10.662;2023-02-27T04:51:51;13.43;;;7.22;;
64932;SDS011;51446;53.850;10.662;2023-02-27T04:54:25;11.32;;;6.47;;
64932;SDS011;51446;53.850;10.662;2023-02-27T04:56:56;9.15;;;6.57;;
64932;SDS011;51446;53.850;10.662;2023-02-27T04:59:28;10.10;;;6.45;;
64932;SDS011;51446;53.850;10.662;2023-02-27T05:01:57;13.70;;;6.40;;
64932;SDS011;51446;53.850;10.662;2023-02-27T05:04:27;9.75;;;6.70;;
64932;SDS011;51446;53.850;10.662;2023-02-27T05:06:56;8.38;;;6.40;;
64932;SDS011;51446;53.850;10.662;2023-02-27T05:09:36;16.55;;;6.78;;
64932;SDS011;51446;53.850;10.662;2023-02-27T05:12:09;11.45;;;6.13;;
64932;SDS011;51446;53.850;10.662;2023-02-27T05:17:10;13.20;;;6.45;;
64932;SDS011;51446;53.850;10.662;2023-02-27T05:19:41;9.52;;;7.00;;
64932;SDS011;51446;53.850;10.662;2023-02-27T05:22:10;14.40;;;7.40;;
64932;SDS011;51446;53.850;10.662;2023-02-27T05:27:41;13.97;;;6.10;;
64932;SDS011;51446;53.850;10.662;2023-02-27T05:30:34;14.43;;;6.82;;
64932;SDS011;51446;53.850;10.662;2023-02-27T05:33:12;10.25;;;6.60;;
64932;SDS011;51446;53.850;10.662;2023-02-27T05:35:55;17.17;;;6.35;;
64932;SDS011;51446;53.850;10.662;2023-02-27T05:38:33;10.75;;;6.18;;
64932;SDS011;51446;53.850;10.662;2023-02-27T05:41:09;14.50;;;7.10;;
64932;SDS011;51446;53.850;10.662;2023-02-27T05:43:41;15.35;;;6.68;;
64932;SDS011;51446;53.850;10.662;2023-02-27T05:46:15;15.82;;;6.60;;
64932;SDS011;51446;53.850;10.662;2023-02-27T05:48:46;13.20;;;6.70;;
64932;SDS011;51446;53.850;10.662;2023-02-27T05:51:19;11.82;;;6.47;;
64932;SDS011;51446;53.850;10.662;2023-02-27T05:53:49;11.83;;;7.00;;
64932;SDS011;51446;53.850;10.662;2023-02-27T05:56:22;10.82;;;6.55;;
64932;SDS011;51446;53.850;10.662;2023-02-27T05:58:54;12.75;;;6.63;;
64932;SDS011;51446;53.850;10.662;2023-02-27T06:01:26;11.02;;;6.55;;
64932;SDS011;51446;53.850;10.662;2023-02-27T06:03:52;18.17;;;7.67;;
64932;SDS011;51446;53.850;10.662;2023-02-27T06:06:17;15.90;;;8.90;;
64932;SDS011;51446;53.850;10.662;2023-02-27T06:08:44;15.77;;;9.55;;
64932;SDS011;51446;53.850;10.662;2023-02-27T06:11:09;19.13;;;10.52;;
64932;SDS011;51446;53.850;10.662;2023-02-27T06:13:35;15.70;;;8.63;;
64932;SDS011;51446;53.850;10.662;2023-02-27T06:16:01;18.73;;;9.37;;
64932;SDS011;51446;53.850;10.662;2023-02-27T06:18:26;15.10;;;8.30;;
64932;SDS011;51446;53.850;10.662;2023-02-27T06:20:51;14.73;;;7.43;;
64932;SDS011;51446;53.850;10.662;2023-02-27T06:23:17;14.23;;;7.90;;
64932;SDS011;51446;53.850;10.662;2023-02-27T06:25:43;11.07;;;7.80;;
64932;SDS011;51446;53.850;10.662;2023-02-27T06:28:08;16.42;;;7.95;;
64932;SDS011;51446;53.850;10.662;2023-02-27T06:30:34;16.83;;;9.95;;
64932;SDS011;51446;53.850;10.662;2023-02-27T06:32:59;15.55;;;8.32;;
64932;SDS011;51446;53.850;10.662;2023-02-27T06:35:25;15.97;;;7.87;;
64932;SDS011;51446;53.850;10.662;2023-02-27T06:37:51;15.00;;;8.40;;
64932;SDS011;51446;53.850;10.662;2023-02-27T06:40:16;14.05;;;8.48;;
64932;SDS011;51446;53.850;10.662;2023-02-27T06:42:43;13.88;;;7.82;;
64932;SDS011;51446;53.850;10.662;2023-02-27T06:45:09;12.25;;;6.32;;
64932;SDS011;51446;53.850;10.662;2023-02-27T06:47:36;12.32;;;6.10;;
64932;SDS011;51446;53.850;10.662;2023-02-27T06:50:02;8.47;;;5.37;;
64932;SDS011;51446;53.850;10.662;2023-02-27T06:52:27;10.30;;;5.70;;
64932;SDS011;51446;53.850;10.662;2023-02-27T06:54:53;15.17;;;6.03;;
64932;SDS011;51446;53.850;10.662;2023-02-27T06:57:18;10.95;;;6.00;;
64932;SDS011;51446;53.850;10.662;2023-02-27T06:59:43;9.82;;;5.80;;
64932;SDS011;51446;53.850;10.662;2023-02-27T07:02:12;10.87;;;5.30;;
64932;SDS011;51446;53.850;10.662;2023-02-27T07:04:39;11.30;;;6.63;;
64932;SDS011;51446;53.850;10.662;2023-02-27T07:07:05;9.57;;;4.75;;
64932;SDS011;51446;53.850;10.662;2023-02-27T07:09:30;9.23;;;5.23;;
64932;SDS011;51446;53.850;10.662;2023-02-27T07:11:56;11.47;;;5.00;;
64932;SDS011;51446;53.850;10.662;2023-02-27T07:14:21;12.27;;;4.50;;
64932;SDS011;51446;53.850;10.662;2023-02-27T07:16:46;7.97;;;4.70;;
64932;SDS011;51446;53.850;10.662;2023-02-27T07:19:15;11.40;;;5.25;;
64932;SDS011;51446;53.850;10.662;2023-02-27T07:21:40;9.95;;;5.00;;
64932;SDS011;51446;53.850;10.662;2023-02-27T07:24:06;9.40;;;4.10;;
64932;SDS011;51446;53.850;10.662;2023-02-27T07:26:31;9.37;;;4.50;;
64932;SDS011;51446;53.850;10.662;2023-02-27T07:28:56;6.27;;;3.47;;
64932;SDS011;51446;53.850;10.662;2023-02-27T07:31:22;5.63;;;3.43;;
64932;SDS011;51446;53.850;10.662;2023-02-27T07:33:47;6.50;;;3.20;;
64932;SDS011;51446;53.850;10.662;2023-02-27T07:36:12;7.30;;;3.63;;
64932;SDS011;51446;53.850;10.662;2023-02-27T07:38:37;7.80;;;3.50;;
64932;SDS011;51446;53.850;10.662;2023-02-27T07:41:03;8.00;;;3.20;;
64932;SDS011;51446;53.850;10.662;2023-02-27T07:43:28;10.63;;;3.40;;
64932;SDS011;51446;53.850;10.662;2023-02-27T07:45:54;10.03;;;3.60;;
64932;SDS011;51446;53.850;10.662;2023-02-27T07:48:19;9.40;;;3.60;;
64932;SDS011;51446;53.850;10.662;2023-02-27T07:50:44;8.30;;;3.53;;
64932;SDS011;51446;53.850;10.662;2023-02-27T07:53:10;6.77;;;3.10;;
64932;SDS011;51446;53.850;10.662;2023-02-27T07:55:37;7.73;;;3.07;;
64932;SDS011;51446;53.850;10.662;2023-02-27T07:58:02;8.07;;;3.00;;
64932;SDS011;51446;53.850;10.662;2023-02-27T08:00:27;7.73;;;3.20;;
64932;SDS011;51446;53.850;10.662;2023-02-27T08:02:53;6.23;;;3.00;;
64932;SDS011;51446;53.850;10.662;2023-02-27T08:05:18;6.53;;;3.30;;
64932;SDS011;51446;53.850;10.662;2023-02-27T08:07:44;9.63;;;3.23;;
64932;SDS011;51446;53.850;10.662;2023-02-27T08:10:09;8.57;;;3.37;;
64932;SDS011;51446;53.850;10.662;2023-02-27T08:12:35;5.90;;;2.75;;
64932;SDS011;51446;53.850;10.662;2023-02-27T08:15:00;6.63;;;2.90;;
64932;SDS011;51446;53.850;10.662;2023-02-27T08:17:25;8.17;;;3.70;;
64932;SDS011;51446;53.850;10.662;2023-02-27T08:19:51;10.40;;;3.53;;
64932;SDS011;51446;53.850;10.662;2023-02-27T08:22:16;9.17;;;2.83;;
64932;SDS011;51446;53.850;10.662;2023-02-27T08:24:41;6.83;;;2.90;;
64932;SDS011;51446;53.850;10.662;2023-02-27T08:27:07;5.80;;;2.58;;
64932;SDS011;51446;53.850;10.662;2023-02-27T08:29:32;6.10;;;2.43;;
64932;SDS011;51446;53.850;10.662;2023-02-27T08:31:58;4.93;;;2.77;;
64932;SDS011;51446;53.850;10.662;2023-02-27T08:34:25;8.77;;;3.22;;
64932;SDS011;51446;53.850;10.662;2023-02-27T08:36:51;7.40;;;2.40;;
64932;SDS011;51446;53.850;10.662;2023-02-27T08:39:16;6.55;;;2.45;;
64932;SDS011;51446;53.850;10.662;2023-02-27T08:41:42;6.83;;;2.27;;
64932;SDS011;51446;53.850;10.662;2023-02-27T08:44:09;9.55;;;2.78;;
64932;SDS011;51446;53.850;10.662;2023-02-27T08:46:35;7.13;;;2.43;;
64932;SDS011;51446;53.850;10.662;2023-02-27T08:49:00;6.40;;;2.40;;
64932;SDS011;51446;53.850;10.662;2023-02-27T08:51:25;6.67;;;2.10;;
64932;SDS011;51446;53.850;10.662;2023-02-27T08:53:51;4.30;;;1.47;;
64932;SDS011;51446;53.850;10.662;2023-02-27T08:56:16;4.53;;;1.60;;
64932;SDS011;51446;53.850;10.662;2023-02-27T08:58:42;6.83;;;2.20;;
64932;SDS011;51446;53.850;10.662;2023-02-27T09:01:07;5.27;;;1.67;;
64932;SDS011;51446;53.850;10.662;2023-02-27T09:03:32;3.73;;;1.70;;
64932;SDS011;51446;53.850;10.662;2023-02-27T09:05:57;8.47;;;2.00;;
64932;SDS011;51446;53.850;10.662;2023-02-27T09:08:23;6.20;;;1.87;;
64932;SDS011;51446;53.850;10.662;2023-02-27T09:10:48;4.30;;;1.63;;
64932;SDS011;51446;53.850;10.662;2023-02-27T09:13:13;2.27;;;1.10;;
64932;SDS011;51446;53.850;10.662;2023-02-27T09:15:39;7.63;;;2.10;;
64932;SDS011;51446;53.850;10.662;2023-02-27T09:18:04;4.87;;;1.50;;
64932;SDS011;51446;53.850;10.662;2023-02-27T09:20:31;6.53;;;2.03;;
64932;SDS011;51446;53.850;10.662;2023-02-27T09:22:59;5.70;;;1.50;;
64932;SDS011;51446;53.850;10.662;2023-02-27T09:25:25;4.47;;;1.50;;
64932;SDS011;51446;53.850;10.662;2023-02-27T09:27:51;7.05;;;1.80;;
64932;SDS011;51446;53.850;10.662;2023-02-27T09:30:16;3.93;;;1.40;;
64932;SDS011;51446;53.850;10.662;2023-02-27T09:32:41;6.03;;;1.40;;
64932;SDS011;51446;53.850;10.662;2023-02-27T09:35:07;3.60;;;1.40;;
64932;SDS011;51446;53.850;10.662;2023-02-27T09:37:33;5.47;;;1.77;;
64932;SDS011;51446;53.850;10.662;2023-02-27T09:39:59;3.25;;;1.20;;
64932;SDS011;51446;53.850;10.662;2023-02-27T09:42:25;4.27;;;1.30;;
64932;SDS011;51446;53.850;10.662;2023-02-27T09:44:59;3.40;;;1.30;;
64932;SDS011;51446;53.850;10.662;2023-02-27T09:47:34;5.53;;;1.35;;
64932;SDS011;51446;53.850;10.662;2023-02-27T09:50:09;5.25;;;1.45;;
64932;SDS011;51446;53.850;10.662;2023-02-27T09:52:51;4.32;;;1.70;;
64932;SDS011;51446;53.850;10.662;2023-02-27T09:55:18;3.90;;;1.87;;
64932;SDS011;51446;53.850;10.662;2023-02-27T09:57:46;3.55;;;1.80;;
64932;SDS011;51446;53.850;10.662;2023-02-27T10:02:57;3.70;;;1.40;;
64932;SDS011;51446;53.850;10.662;2023-02-27T10:05:51;4.13;;;1.20;;
64932;SDS011;51446;53.850;10.662;2023-02-27T10:08:42;2.40;;;1.20;;
64932;SDS011;51446;53.850;10.662;2023-02-27T10:11:31;2.53;;;1.20;;
64932;SDS011;51446;53.850;10.662;2023-02-27T10:16:42;5.75;;;1.35;;
64932;SDS011;51446;53.850;10.662;2023-02-27T10:19:16;3.35;;;1.45;;
64932;SDS011;51446;53.850;10.662;2023-02-27T10:21:49;2.65;;;1.40;;
64932;SDS011;51446;53.850;10.662;2023-02-27T10:24:25;2.78;;;1.55;;
64932;SDS011;51446;53.850;10.662;2023-02-27T10:26:54;5.20;;;1.58;;
64932;SDS011;51446;53.850;10.662;2023-02-27T10:32:02;5.80;;;2.10;;
64932;SDS011;51446;53.850;10.662;2023-02-27T10:34:33;3.75;;;1.50;;
64932;SDS011;51446;53.850;10.662;2023-02-27T10:37:01;2.38;;;1.58;;
64932;SDS011;51446;53.850;10.662;2023-02-27T10:39:29;3.35;;;1.60;;
64932;SDS011;51446;53.850;10.662;2023-02-27T10:42:04;14.32;;;4.18;;
64932;SDS011;51446;53.850;10.662;2023-02-27T10:44:31;8.88;;;3.50;;
64932;SDS011;51446;53.850;10.662;2023-02-27T10:46:57;4.10;;;1.63;;
64932;SDS011;51446;53.850;10.662;2023-02-27T10:49:22;3.87;;;1.40;;
64932;SDS011;51446;53.850;10.662;2023-02-27T10:52:10;7.77;;;1.93;;
64932;SDS011;51446;53.850;10.662;2023-02-27T10:54:37;4.18;;;1.80;;
64932;SDS011;51446;53.850;10.662;2023-02-27T10:59:57;4.18;;;1.70;;
64932;SDS011;51446;53.850;10.662;2023-02-27T11:02:47;3.95;;;1.80;;
64932;SDS011;51446;53.850;10.662;2023-02-27T11:05:32;5.53;;;2.65;;
64932;SDS011;51446;53.850;10.662;2023-02-27T11:10:53;5.70;;;1.90;;
64932;SDS011;51446;53.850;10.662;2023-02-27T11:13:19;3.25;;;1.98;;
64932;SDS011;51446;53.850;10.662;2023-02-27T11:16:06;6.43;;;1.77;;
64932;SDS011;51446;53.850;10.662;2023-02-27T11:18:39;4.10;;;1.73;;
64932;SDS011;51446;53.850;10.662;2023-02-27T11:21:14;4.65;;;1.73;;
64932;SDS011;51446;53.850;10.662;2023-02-27T11:24:04;3.55;;;1.48;;
64932;SDS011;51446;53.850;10.662;2023-02-27T11:26:36;2.42;;;1.60;;
64932;SDS011;51446;53.850;10.662;2023-02-27T11:29:09;3.25;;;1.83;;
64932;SDS011;51446;53.850;10.662;2023-02-27T11:31:55;3.55;;;1.80;;
64932;SDS011;51446;53.850;10.662;2023-02-27T11:36:57;3.33;;;1.50;;
64932;SDS011;51446;53.850;10.662;2023-02-27T11:39:29;3.33;;;1.52;;
64932;SDS011;51446;53.850;10.662;2023-02-27T11:42:04;1.20;;;1.10;;
64932;SDS011;51446;53.850;10.662;2023-02-27T11:44:35;1.92;;;1.13;;
64932;SDS011;51446;53.850;10.662;2023-02-27T11:47:08;2.40;;;1.20;;
64932;SDS011;51446;53.850;10.662;2023-02-27T11:49:55;1.75;;;1.15;;
64932;SDS011;51446;53.850;10.662;2023-02-27T11:52:38;1.95;;;1.10;;
64932;SDS011;51446;53.850;10.662;2023-02-27T11:55:13;3.47;;;1.30;;
64932;SDS011;51446;53.850;10.662;2023-02-27T11:57:43;2.67;;;1.42;;
64932;SDS011;51446;53.850;10.662;2023-02-27T12:00:17;3.92;;;1.42;;
64932;SDS011;51446;53.850;10.662;2023-02-27T12:02:50;2.70;;;1.25;;
64932;SDS011;51446;53.850;10.662;2023-02-27T12:05:23;3.05;;;1.63;;
64932;SDS011;51446;53.850;10.662;2023-02-27T12:07:57;2.65;;;1.10;;
64932;SDS011;51446;53.850;10.662;2023-02-27T12:10:47;3.60;;;1.30;;
64932;SDS011;51446;53.850;10.662;2023-02-27T12:13:20;1.40;;;1.20;;
64932;SDS011;51446;53.850;10.662;2023-02-27T12:15:53;2.95;;;1.45;;
64932;SDS011;51446;53.850;10.662;2023-02-27T12:18:34;1.85;;;1.38;;
64932;SDS011;51446;53.850;10.662;2023-02-27T12:21:16;4.15;;;1.58;;
64932;SDS011;51446;53.850;10.662;2023-02-27T12:23:51;1.65;;;1.50;;
64932;SDS011;51446;53.850;10.662;2023-02-27T12:28:55;3.80;;;1.98;;
64932;SDS011;51446;53.850;10.662;2023-02-27T12:34:16;3.15;;;1.77;;
64932;SDS011;51446;53.850;10.662;2023-02-27T12:37:04;7.18;;;1.63;;
64932;SDS011;51446;53.850;10.662;2023-02-27T12:39:35;3.50;;;1.73;;
64932;SDS011;51446;53.850;10.662;2023-02-27T12:42:10;2.70;;;1.70;;
64932;SDS011;51446;53.850;10.662;2023-02-27T12:47:32;4.28;;;1.60;;
64932;SDS011;51446;53.850;10.662;2023-02-27T12:50:19;3.40;;;1.70;;
64932;SDS011;51446;53.850;10.662;2023-02-27T12:55:32;5.00;;;1.70;;
64932;SDS011;51446;53.850;10.662;2023-02-27T12:58:06;3.28;;;1.95;;
64932;SDS011;51446;53.850;10.662;2023-02-27T13:00:48;4.63;;;1.80;;
64932;SDS011;51446;53.850;10.662;2023-02-27T13:03:27;2.63;;;1.70;;
64932;SDS011;51446;53.850;10.662;2023-02-27T13:08:54;6.25;;;1.73;;
64932;SDS011;51446;53.850;10.662;2023-02-27T13:14:16;2.50;;;1.80;;
64932;SDS011;51446;53.850;10.662;2023-02-27T13:17:09;4.20;;;1.70;;
64932;SDS011;51446;53.850;10.662;2023-02-27T13:19:47;2.55;;;1.50;;
64932;SDS011;51446;53.850;10.662;2023-02-27T13:24:44;2.00;;;1.70;;
64932;SDS011;51446;53.850;10.662;2023-02-27T13:27:18;2.65;;;1.55;;
64932;SDS011;51446;53.850;10.662;2023-02-27T13:30:04;4.53;;;1.90;;
64932;SDS011;51446;53.850;10.662;2023-02-27T13:37:57;3.40;;;1.85;;
64932;SDS011;51446;53.850;10.662;2023-02-27T13:42:55;4.57;;;1.80;;
64932;SDS011;51446;53.850;10.662;2023-02-27T13:51:00;3.87;;;1.87;;
64932;SDS011;51446;53.850;10.662;2023-02-27T13:53:26;4.82;;;2.10;;
64932;SDS011;51446;53.850;10.662;2023-02-27T13:58:47;5.90;;;1.67;;
64932;SDS011;51446;53.850;10.662;2023-02-27T14:01:14;5.05;;;1.80;;
64932;SDS011;51446;53.850;10.662;2023-02-27T14:03:41;2.17;;;1.55;;
64932;SDS011;51446;53.850;10.662;2023-02-27T14:06:16;3.33;;;1.60;;
64932;SDS011;51446;53.850;10.662;2023-02-27T14:08:48;3.07;;;1.60;;
64932;SDS011;51446;53.850;10.662;2023-02-27T14:11:33;6.15;;;2.17;;
64932;SDS011;51446;53.850;10.662;2023-02-27T14:14:33;4.03;;;2.00;;
64932;SDS011;51446;53.850;10.662;2023-02-27T14:17:53;5.90;;;2.30;;
64932;SDS011;51446;53.850;10.662;2023-02-27T14:20:00;3.97;;;2.00;;
64932;SDS011;51446;53.850;10.662;2023-02-27T14:22:29;5.97;;;2.10;;
64932;SDS011;51446;53.850;10.662;2023-02-27T14:25:11;4.05;;;1.95;;
64932;SDS011;51446;53.850;10.662;2023-02-27T14:30:06;6.93;;;1.87;;
64932;SDS011;51446;53.850;10.662;2023-02-27T14:32:50;6.07;;;2.20;;
64932;SDS011;51446;53.850;10.662;2023-02-27T14:35:19;4.25;;;2.00;;
64932;SDS011;51446;53.850;10.662;2023-02-27T14:37:44;4.70;;;2.00;;
64932;SDS011;51446;53.850;10.662;2023-02-27T14:40:15;3.35;;;1.85;;
64932;SDS011;51446;53.850;10.662;2023-02-27T14:45:30;3.35;;;1.90;;
64932;SDS011;51446;53.850;10.662;2023-02-27T14:47:56;5.33;;;2.33;;
64932;SDS011;51446;53.850;10.662;2023-02-27T14:50:31;5.15;;;2.60;;
64932;SDS011;51446;53.850;10.662;2023-02-27T14:53:00;3.90;;;2.55;;
64932;SDS011;51446;53.850;10.662;2023-02-27T14:55:27;5.37;;;2.33;;
64932;SDS011;51446;53.850;10.662;2023-02-27T15:03:14;7.50;;;2.53;;
64932;SDS011;51446;53.850;10.662;2023-02-27T15:05:42;3.33;;;2.27;;
64932;SDS011;51446;53.850;10.662;2023-02-27T15:08:51;6.10;;;2.47;;
64932;SDS011;51446;53.850;10.662;2023-02-27T15:11:00;4.10;;;2.60;;
64932;SDS011;51446;53.850;10.662;2023-02-27T15:18:47;3.90;;;2.30;;
64932;SDS011;51446;53.850;10.662;2023-02-27T15:21:15;4.60;;;2.30;;
64932;SDS011;51446;53.850;10.662;2023-02-27T15:23:43;4.53;;;2.70;;
64932;SDS011;51446;53.850;10.662;2023-02-27T15:26:11;6.72;;;2.55;;
64932;SDS011;51446;53.850;10.662;2023-02-27T15:28:38;4.57;;;2.30;;
64932;SDS011;51446;53.850;10.662;2023-02-27T15:31:04;5.90;;;2.47;;
64932;SDS011;51446;53.850;10.662;2023-02-27T15:33:33;5.22;;;2.47;;
64932;SDS011;51446;53.850;10.662;2023-02-27T15:35:59;6.10;;;2.50;;
64932;SDS011;51446;53.850;10.662;2023-02-27T15:38:26;3.03;;;2.15;;
64932;SDS011;51446;53.850;10.662;2023-02-27T15:40:53;7.03;;;2.50;;
64932;SDS011;51446;53.850;10.662;2023-02-27T15:43:21;6.38;;;2.33;;
64932;SDS011;51446;53.850;10.662;2023-02-27T15:45:47;6.38;;;2.58;;
64932;SDS011;51446;53.850;10.662;2023-02-27T15:48:14;7.93;;;2.50;;
64932;SDS011;51446;53.850;10.662;2023-02-27T15:50:41;6.72;;;2.53;;
64932;SDS011;51446;53.850;10.662;2023-02-27T15:53:13;5.07;;;2.30;;
64932;SDS011;51446;53.850;10.662;2023-02-27T15:55:48;3.40;;;2.28;;
64932;SDS011;51446;53.850;10.662;2023-02-27T15:58:26;4.43;;;2.50;;
64932;SDS011;51446;53.850;10.662;2023-02-27T16:00:56;3.80;;;2.35;;
64932;SDS011;51446;53.850;10.662;2023-02-27T16:03:25;4.65;;;2.67;;
64932;SDS011;51446;53.850;10.662;2023-02-27T16:05:56;9.57;;;2.60;;
64932;SDS011;51446;53.850;10.662;2023-02-27T16:08:22;5.68;;;2.78;;
64932;SDS011;51446;53.850;10.662;2023-02-27T16:10:48;5.20;;;2.80;;
64932;SDS011;51446;53.850;10.662;2023-02-27T16:21:19;5.85;;;2.30;;
64932;SDS011;51446;53.850;10.662;2023-02-27T16:23:46;4.57;;;2.10;;
64932;SDS011;51446;53.850;10.662;2023-02-27T16:29:20;5.47;;;2.72;;
64932;SDS011;51446;53.850;10.662;2023-02-27T16:31:52;5.60;;;2.60;;
64932;SDS011;51446;53.850;10.662;2023-02-27T16:34:28;4.37;;;2.53;;
64932;SDS011;51446;53.850;10.662;2023-02-27T16:36:57;8.82;;;3.20;;
64932;SDS011;51446;53.850;10.662;2023-02-27T16:39:25;5.90;;;3.08;;
64932;SDS011;51446;53.850;10.662;2023-02-27T16:41:51;6.65;;;2.40;;
64932;SDS011;51446;53.850;10.662;2023-02-27T16:44:17;6.97;;;2.92;;
64932;SDS011;51446;53.850;10.662;2023-02-27T16:46:43;4.57;;;2.57;;
64932;SDS011;51446;53.850;10.662;2023-02-27T16:49:17;5.78;;;3.20;;
64932;SDS011;51446;53.850;10.662;2023-02-27T16:51:44;3.70;;;2.87;;
64932;SDS011;51446;53.850;10.662;2023-02-27T16:54:09;2.92;;;2.38;;
64932;SDS011;51446;53.850;10.662;2023-02-27T16:56:35;4.72;;;2.40;;
64932;SDS011;51446;53.850;10.662;2023-02-27T16:59:00;5.73;;;2.50;;
64932;SDS011;51446;53.850;10.662;2023-02-27T17:01:26;6.17;;;2.80;;
64932;SDS011;51446;53.850;10.662;2023-02-27T17:03:51;4.90;;;2.72;;
64932;SDS011;51446;53.850;10.662;2023-02-27T17:06:17;8.82;;;3.50;;